createdAt,value
2017-02-27T00:00:46.175Z,96.79
2017-02-27T00:01:59.234Z,96.98
2017-02-27T00:03:12.268Z,97.17
2017-02-27T00:04:25.337Z,97.17
2017-02-27T00:05:38.055Z,96.79
2017-02-27T00:06:51.117Z,96.03
2017-02-27T00:08:03.405Z,95.46
2017-02-27T00:09:16.098Z,95.94
2017-02-27T00:10:29.166Z,96.41
2017-02-27T00:11:41.859Z,96.22
2017-02-27T00:12:54.926Z,96.5
2017-02-27T00:14:07.979Z,96.79
2017-02-27T00:15:20.252Z,95.94
2017-02-27T00:16:33.325Z,96.22
2017-02-27T00:17:46.031Z,95.84
2017-02-27T00:18:59.128Z,96.22
2017-02-27T00:20:12.223Z,96.22
2017-02-27T00:21:25.154Z,96.6
2017-02-27T00:22:38.247Z,96.6
2017-02-27T00:23:51.310Z,96.89
2017-02-27T00:25:04.423Z,96.6
2017-02-27T00:26:17.488Z,96.6
2017-02-27T00:27:30.552Z,96.41
2017-02-27T00:28:43.625Z,96.5
2017-02-27T00:29:56.747Z,96.22
2017-02-27T00:31:09.814Z,96.31
2017-02-27T00:32:22.880Z,95.84
2017-02-27T00:33:35.939Z,95.75
2017-02-27T00:34:49.026Z,95.56
2017-02-27T00:36:02.127Z,95.36
2017-02-27T00:37:15.223Z,95.75
2017-02-27T00:38:28.319Z,95.36
2017-02-27T00:39:41.061Z,95.84
2017-02-27T00:40:54.153Z,95.84
2017-02-27T00:42:06.834Z,95.84
2017-02-27T00:43:20.156Z,95.65
2017-02-27T00:44:32.847Z,95.56
2017-02-27T00:45:45.885Z,95.56
2017-02-27T00:46:58.964Z,95.84
2017-02-27T00:48:12.036Z,94.98
2017-02-27T00:49:25.106Z,94.6
2017-02-27T00:50:38.173Z,95.27
2017-02-27T00:51:51.265Z,95.46
2017-02-27T00:53:04.344Z,95.65
2017-02-27T00:54:17.054Z,95.75
2017-02-27T00:55:30.144Z,95.84
2017-02-27T00:56:43.202Z,95.46
2017-02-27T00:57:56.322Z,95.84
2017-02-27T00:59:09.073Z,95.56
2017-02-27T01:00:22.187Z,95.56
2017-02-27T01:01:35.298Z,95.65
2017-02-27T01:02:48.356Z,95.46
2017-02-27T01:04:01.436Z,95.65
2017-02-27T01:05:14.773Z,95.36
2017-02-27T01:06:27.850Z,95.36
2017-02-27T01:07:40.137Z,94.7
2017-02-27T01:08:52.447Z,94.79
2017-02-27T01:10:05.151Z,95.08
2017-02-27T01:11:17.835Z,94.6
2017-02-27T01:12:30.895Z,94.98
2017-02-27T01:13:43.978Z,94.98
2017-02-27T01:14:57.119Z,95.08
2017-02-27T01:16:09.811Z,95.27
2017-02-27T01:17:22.860Z,94.89
2017-02-27T01:18:35.510Z,94.7
2017-02-27T01:19:48.180Z,95.17
2017-02-27T01:21:01.249Z,95.36
2017-02-27T01:22:13.920Z,94.89
2017-02-27T01:23:26.990Z,95.08
2017-02-27T01:24:40.035Z,95.46
2017-02-27T01:25:52.699Z,95.36
2017-02-27T01:27:05.237Z,95.08
2017-02-27T01:28:18.378Z,95.08
2017-02-27T01:29:31.503Z,94.6
2017-02-27T01:30:44.195Z,93.65
2017-02-27T01:31:57.268Z,93.55
2017-02-27T01:33:09.964Z,94.03
2017-02-27T01:34:23.033Z,94.42
2017-02-27T01:52:38.937Z,94.22
2017-02-27T01:53:54.871Z,94.03
2017-02-27T01:55:08.026Z,94.03
2017-02-27T01:56:21.057Z,93.94
2017-02-27T01:57:34.181Z,93.94
2017-02-27T01:58:46.917Z,94.03
2017-02-27T01:59:59.242Z,94.13
2017-02-27T02:01:12.316Z,94.03
2017-02-27T02:02:24.984Z,93.94
2017-02-27T02:03:38.064Z,94.32
2017-02-27T02:04:50.628Z,94.03
2017-02-27T02:06:03.297Z,94.03
2017-02-27T02:07:15.197Z,93.75
2017-02-27T02:08:28.259Z,93.55
2017-02-27T02:09:41.377Z,93.55
2017-02-27T02:10:54.432Z,93.94
2017-02-27T02:12:07.496Z,94.51
2017-02-27T02:13:20.199Z,93.65
2017-02-27T02:14:33.313Z,94.03
2017-02-27T02:15:46.390Z,94.32
2017-02-27T02:16:59.463Z,94.6
2017-02-27T02:18:12.534Z,94.6
2017-02-27T02:19:25.633Z,94.03
2017-02-27T02:20:38.718Z,94.32
2017-02-27T02:21:51.792Z,94.51
2017-02-27T02:23:04.497Z,94.03
2017-02-27T02:24:17.553Z,93.94
2017-02-27T02:25:30.632Z,93.94
2017-02-27T02:26:43.756Z,93.65
2017-02-27T02:27:56.080Z,93.94
2017-02-27T02:29:09.190Z,93.94
2017-02-27T02:30:22.265Z,94.03
2017-02-27T02:31:34.581Z,93.94
2017-02-27T02:32:47.674Z,93.27
2017-02-27T02:34:00.731Z,93.46
2017-02-27T02:35:13.798Z,93.84
2017-02-27T02:36:26.496Z,93.65
2017-02-27T02:37:39.567Z,93.27
2017-02-27T02:38:52.664Z,93.55
2017-02-27T02:40:05.785Z,93.55
2017-02-27T02:41:18.123Z,93.27
2017-02-27T02:42:31.466Z,93.27
2017-02-27T02:43:44.565Z,93.75
2017-02-27T02:44:57.265Z,93.55
2017-02-27T02:46:10.344Z,93.65
2017-02-27T02:47:23.042Z,93.94
2017-02-27T02:48:36.131Z,93.94
2017-02-27T02:49:49.247Z,93.65
2017-02-27T02:51:02.352Z,93.94
2017-02-27T02:52:14.632Z,93.65
2017-02-27T02:53:27.717Z,93.65
2017-02-27T02:54:40.758Z,93.55
2017-02-27T02:55:53.825Z,94.13
2017-02-27T02:57:06.524Z,94.03
2017-02-27T02:58:19.282Z,94.22
2017-02-27T02:59:32.366Z,94.13
2017-02-27T03:00:45.441Z,94.51
2017-02-27T03:01:58.158Z,94.03
2017-02-27T03:03:10.482Z,93.55
2017-02-27T03:04:23.217Z,93.65
2017-02-27T03:05:35.928Z,93.94
2017-02-27T03:06:48.624Z,94.13
2017-02-27T03:08:01.308Z,93.65
2017-02-27T03:09:14.361Z,93.94
2017-02-27T03:10:27.446Z,94.03
2017-02-27T03:11:40.104Z,93.94
2017-02-27T03:12:53.199Z,93.84
2017-02-27T03:14:06.248Z,92.7
2017-02-27T03:15:18.541Z,93.08
2017-02-27T03:16:31.254Z,93.27
2017-02-27T03:17:44.358Z,93.46
2017-02-27T03:18:57.025Z,93.84
2017-02-27T03:20:10.087Z,93.75
2017-02-27T03:21:22.746Z,93.84
2017-02-27T03:22:35.840Z,93.27
2017-02-27T03:23:48.911Z,93.18
2017-02-27T03:25:02.001Z,92.99
2017-02-27T03:26:15.058Z,92.8
2017-02-27T03:27:27.774Z,93.46
2017-02-27T03:28:40.466Z,93.55
2017-02-27T03:29:53.148Z,93.46
2017-02-27T03:31:06.230Z,93.37
2017-02-27T03:32:19.307Z,93.27
2017-02-27T03:33:31.650Z,93.55
2017-02-27T03:34:44.699Z,93.65
2017-02-27T03:35:57.341Z,93.65
2017-02-27T03:37:10.491Z,93.65
2017-02-27T03:38:23.638Z,93.94
2017-02-27T03:39:36.332Z,92.7
2017-02-27T03:40:48.643Z,92.41
2017-02-27T03:42:01.313Z,92.61
2017-02-27T03:43:14.017Z,92.99
2017-02-27T03:44:27.091Z,93.08
2017-02-27T03:45:40.234Z,92.61
2017-02-27T03:46:53.279Z,92.99
2017-02-27T03:48:06.003Z,93.46
2017-02-27T03:49:18.679Z,92.89
2017-02-27T03:50:30.992Z,93.08
2017-02-27T03:51:43.688Z,93.55
2017-02-27T03:52:56.784Z,93.18
2017-02-27T03:54:09.861Z,93.55
2017-02-27T03:55:22.551Z,92.8
2017-02-27T03:56:35.622Z,93.37
2017-02-27T03:57:48.722Z,92.8
2017-02-27T03:59:01.419Z,93.27
2017-02-27T04:00:14.493Z,93.55
2017-02-27T04:01:27.580Z,93.75
2017-02-27T04:02:40.651Z,93.75
2017-02-27T04:03:53.326Z,93.46
2017-02-27T04:05:06.661Z,93.65
2017-02-27T04:06:19.733Z,93.46
2017-02-27T04:07:32.813Z,92.89
2017-02-27T04:08:45.906Z,93.08
2017-02-27T04:09:58.597Z,92.8
2017-02-27T04:11:11.297Z,93.27
2017-02-27T04:12:24.047Z,93.08
2017-02-27T04:13:37.089Z,92.51
2017-02-27T04:14:49.752Z,92.7
2017-02-27T04:16:02.806Z,93.08
2017-02-27T04:17:15.868Z,92.94
2017-02-27T04:18:28.573Z,92.8
2017-02-27T04:19:41.647Z,92.7
2017-02-27T04:20:54.568Z,92.99
2017-02-27T04:22:07.639Z,92.61
2017-02-27T04:23:20.761Z,92.89
2017-02-27T04:24:33.479Z,92.99
2017-02-27T04:25:46.619Z,93.55
2017-02-27T04:26:59.701Z,93.27
2017-02-27T04:28:12.370Z,93.08
2017-02-27T04:29:24.662Z,93.18
2017-02-27T04:30:37.702Z,93.18
2017-02-27T04:31:50.431Z,93.08
2017-02-27T04:33:03.519Z,93.08
2017-02-27T04:34:16.571Z,92.8
2017-02-27T04:35:29.246Z,93.04
2017-02-27T04:36:42.331Z,92.99
2017-02-27T04:37:55.027Z,92.22
2017-02-27T04:39:08.149Z,92.75
2017-02-27T04:40:21.228Z,92.18
2017-02-27T04:41:34.290Z,92.27
2017-02-27T04:42:46.986Z,92.99
2017-02-27T04:43:58.911Z,93.13
2017-02-27T04:45:12.028Z,93.41
2017-02-27T04:46:25.130Z,92.66
2017-02-27T04:47:37.452Z,92.56
2017-02-27T04:48:50.524Z,93.23
2017-02-27T04:50:03.245Z,93.13
2017-02-27T04:51:15.916Z,93.13
2017-02-27T04:52:28.960Z,93.41
2017-02-27T04:53:41.628Z,92.85
2017-02-27T04:54:54.349Z,92.94
2017-02-27T04:56:07.422Z,92.75
2017-02-27T04:57:20.136Z,93.41
2017-02-27T04:58:32.854Z,93.13
2017-02-27T04:59:45.907Z,93.79
2017-02-27T05:00:58.578Z,93.99
2017-02-27T05:02:11.253Z,94.08
2017-02-27T05:03:23.524Z,94.65
2017-02-27T05:04:36.591Z,93.89
2017-02-27T05:05:49.687Z,93.89
2017-02-27T05:07:01.642Z,93.99
2017-02-27T05:08:14.330Z,93.99
2017-02-27T05:09:27.420Z,94.03
2017-02-27T05:10:40.516Z,94.46
2017-02-27T05:11:53.593Z,94.42
2017-02-27T05:13:06.637Z,93.94
2017-02-27T05:14:19.312Z,94.51
2017-02-27T05:15:32.371Z,94.98
2017-02-27T05:16:45.470Z,94.79
2017-02-27T05:17:57.803Z,95.17
2017-02-27T05:19:10.870Z,95.27
2017-02-27T05:20:23.911Z,94.79
2017-02-27T05:21:36.932Z,95.65
2017-02-27T05:22:49.609Z,95.65
2017-02-27T05:24:02.674Z,95.46
2017-02-27T05:25:15.347Z,95.36
2017-02-27T05:26:28.419Z,95.55
2017-02-27T05:27:41.487Z,95.27
2017-02-27T05:28:54.175Z,96.5
2017-02-27T05:30:07.246Z,96.31
2017-02-27T05:31:20.324Z,96.12
2017-02-27T05:32:32.995Z,96.64
2017-02-27T05:33:45.669Z,96.36
2017-02-27T05:34:57.564Z,96.55
2017-02-27T05:36:10.212Z,96.93
2017-02-27T05:37:23.303Z,97.02
2017-02-27T05:38:35.599Z,96.93
2017-02-27T05:39:48.674Z,97.02
2017-02-27T05:41:01.367Z,97.41
2017-02-27T05:42:14.036Z,97.31
2017-02-27T05:43:26.751Z,97.41
2017-02-27T05:44:39.478Z,96.83
2017-02-27T05:45:52.551Z,97.41
2017-02-27T05:47:05.195Z,97.78
2017-02-27T05:48:18.241Z,97.69
2017-02-27T05:49:30.916Z,98.07
2017-02-27T05:50:43.939Z,97.6
2017-02-27T05:51:57.012Z,97.41
2017-02-27T05:53:09.950Z,97.88
2017-02-27T05:54:23.026Z,98.07
2017-02-27T05:55:35.308Z,98.26
2017-02-27T05:56:48.379Z,98.4
2017-02-27T05:58:01.062Z,98.59
2017-02-27T05:59:14.149Z,98.68
2017-02-27T06:00:26.825Z,98.78
2017-02-27T06:01:39.499Z,98.68
2017-02-27T06:02:52.588Z,98.87
2017-02-27T06:04:05.908Z,99.06
2017-02-27T06:05:18.601Z,99.35
2017-02-27T06:06:31.685Z,99.35
2017-02-27T06:07:44.758Z,99.26
2017-02-27T06:08:57.816Z,99.44
2017-02-27T06:10:10.543Z,99.44
2017-02-27T06:11:23.234Z,99.35
2017-02-27T06:12:36.302Z,99.54
2017-02-27T06:13:48.983Z,99.99
2017-02-27T06:15:01.694Z,99.54
2017-02-27T06:16:14.793Z,99.91
2017-02-27T06:17:27.846Z,99.91
2017-02-27T06:18:40.910Z,99.73
2017-02-27T06:19:54.009Z,99.82
2017-02-27T06:21:07.099Z,99.99
2017-02-27T06:22:20.194Z,99.73
2017-02-27T06:23:33.278Z,99.73
2017-02-27T06:24:46.359Z,99.99
2017-02-27T06:25:59.067Z,99.82
2017-02-27T06:27:11.735Z,99.99
2017-02-27T06:28:24.051Z,99.99
2017-02-27T06:29:36.380Z,99.99
2017-02-27T06:30:49.481Z,99.99
2017-02-27T06:32:02.165Z,99.99
2017-02-27T06:33:14.865Z,99.99
2017-02-27T06:34:27.963Z,99.99
2017-02-27T06:35:41.031Z,99.99
2017-02-27T06:36:54.108Z,99.99
2017-02-27T06:38:07.202Z,99.99
2017-02-27T06:39:19.497Z,99.99
2017-02-27T06:40:32.544Z,99.99
2017-02-27T06:41:45.254Z,99.99
2017-02-27T06:42:58.324Z,99.99
2017-02-27T06:44:11.345Z,99.99
2017-02-27T06:45:23.644Z,99.99
2017-02-27T06:46:36.311Z,99.96
2017-02-27T06:47:49.370Z,99.99
2017-02-27T06:49:02.455Z,99.99
2017-02-27T06:50:15.533Z,99.99
2017-02-27T06:51:28.232Z,99.99
2017-02-27T06:52:40.949Z,99.99
2017-02-27T06:53:53.995Z,99.99
2017-02-27T06:55:07.066Z,99.99
2017-02-27T06:56:20.192Z,99.99
2017-02-27T06:57:33.236Z,99.99
2017-02-27T06:58:46.300Z,99.99
2017-02-27T06:59:59.359Z,99.99
2017-02-27T07:01:12.427Z,99.99
2017-02-27T07:02:25.109Z,99.99
2017-02-27T07:03:38.183Z,99.99
2017-02-27T07:04:51.258Z,99.99
2017-02-27T07:06:04.308Z,99.99
2017-02-27T07:07:17.397Z,99.99
2017-02-27T07:08:30.450Z,99.99
2017-02-27T07:09:43.562Z,99.99
2017-02-27T07:10:56.640Z,99.99
2017-02-27T07:12:09.709Z,99.99
2017-02-27T07:13:22.755Z,99.99
2017-02-27T07:14:35.807Z,99.99
2017-02-27T07:15:48.875Z,99.99
2017-02-27T07:17:01.947Z,99.99
2017-02-27T07:18:15.062Z,99.99
2017-02-27T07:19:28.152Z,99.99
2017-02-27T07:20:41.229Z,99.99
2017-02-27T07:21:54.297Z,99.99
2017-02-27T07:23:07.364Z,99.99
2017-02-27T07:24:19.613Z,99.99
2017-02-27T07:25:32.943Z,99.99
2017-02-27T07:26:45.613Z,99.99
2017-02-27T07:27:58.688Z,99.73
2017-02-27T07:29:11.822Z,99.63
2017-02-27T07:30:24.501Z,99.99
2017-02-27T07:31:37.564Z,99.91
2017-02-27T07:32:50.622Z,99.91
2017-02-27T07:34:03.289Z,99.99
2017-02-27T07:35:16.354Z,99.99
2017-02-27T07:36:29.431Z,99.35
2017-02-27T07:37:42.477Z,99.06
2017-02-27T07:38:55.565Z,99.35
2017-02-27T07:40:08.668Z,99.26
2017-02-27T07:41:21.703Z,99.11
2017-02-27T07:42:34.781Z,99.11
2017-02-27T07:43:47.844Z,98.97
2017-02-27T07:45:00.525Z,98.92
2017-02-27T07:46:13.626Z,98.83
2017-02-27T07:47:26.335Z,98.83
2017-02-27T07:48:39.428Z,98.73
2017-02-27T07:49:52.474Z,98.64
2017-02-27T07:51:05.181Z,98.83
2017-02-27T07:52:18.298Z,98.64
2017-02-27T07:53:31.361Z,98.83
2017-02-27T07:54:44.082Z,98.07
2017-02-27T07:55:56.764Z,98.07
2017-02-27T07:57:09.810Z,98.16
2017-02-27T07:58:22.884Z,98.35
2017-02-27T07:59:35.977Z,97.78
2017-02-27T08:00:48.687Z,97.6
2017-02-27T08:02:01.021Z,97.5
2017-02-27T08:03:13.682Z,97.78
2017-02-27T08:04:26.763Z,97.88
2017-02-27T08:05:39.804Z,97.97
2017-02-27T08:06:52.506Z,97.27
2017-02-27T08:08:05.616Z,97.64
2017-02-27T08:09:18.695Z,97.45
2017-02-27T08:10:31.387Z,96.79
2017-02-27T08:11:44.462Z,96.69
2017-02-27T08:12:57.525Z,97.07
2017-02-27T08:14:10.653Z,96.6
2017-02-27T08:15:23.822Z,96.88
2017-02-27T08:16:36.866Z,96.6
2017-02-27T08:17:49.936Z,96.08
2017-02-27T08:19:03.033Z,95.27
2017-02-27T08:20:16.125Z,95.41
2017-02-27T08:21:29.167Z,95.6
2017-02-27T08:22:42.245Z,95.79
2017-02-27T08:23:55.319Z,95.79
2017-02-27T08:25:08.383Z,95.32
2017-02-27T08:26:21.426Z,95.12
2017-02-27T08:27:33.711Z,94.84
2017-02-27T08:28:46.416Z,94.74
2017-02-27T08:29:59.493Z,94.84
2017-02-27T08:31:12.546Z,95.22
2017-02-27T08:32:25.237Z,94.84
2017-02-27T08:33:37.913Z,94.84
2017-02-27T08:34:51.059Z,94.51
2017-02-27T08:36:04.182Z,93.94
2017-02-27T08:37:17.220Z,93.94
2017-02-27T08:38:30.288Z,94.22
2017-02-27T08:39:43.346Z,94.22
2017-02-27T08:40:56.383Z,94.03
2017-02-27T08:42:09.058Z,94.03
2017-02-27T08:43:22.118Z,93.65
2017-02-27T08:44:35.221Z,93.75
2017-02-27T08:45:47.884Z,93.55
2017-02-27T08:47:01.030Z,93.75
2017-02-27T08:48:14.180Z,93.7
2017-02-27T08:49:26.857Z,93.41
2017-02-27T08:50:39.543Z,92.65
2017-02-27T08:51:52.622Z,92.56
2017-02-27T08:53:05.694Z,92.84
2017-02-27T08:54:18.792Z,92.75
2017-02-27T08:55:31.913Z,92.36
2017-02-27T08:56:44.956Z,93.04
2017-02-27T08:57:57.626Z,92.84
2017-02-27T08:59:10.700Z,92.65
2017-02-27T09:00:23.794Z,93.04
2017-02-27T09:01:36.491Z,92.56
2017-02-27T09:02:49.183Z,92.36
2017-02-27T09:04:02.255Z,92.65
2017-02-27T09:05:14.579Z,92.36
2017-02-27T09:06:27.646Z,91.56
2017-02-27T09:07:39.917Z,91.27
2017-02-27T09:08:52.990Z,90.89
2017-02-27T09:10:05.684Z,90.99
2017-02-27T09:11:18.373Z,90.89
2017-02-27T09:12:31.054Z,90.89
2017-02-27T09:13:44.118Z,90.42
2017-02-27T09:14:57.221Z,90.61
2017-02-27T09:16:09.565Z,90.8
2017-02-27T09:17:22.666Z,90.03
2017-02-27T09:18:35.380Z,90.03
2017-02-27T09:19:48.451Z,90.36
2017-02-27T09:21:01.547Z,90.46
2017-02-27T09:22:14.635Z,90.17
2017-02-27T09:23:27.693Z,89.79
2017-02-27T09:24:40.802Z,89.79
2017-02-27T09:25:53.862Z,89.98
2017-02-27T09:27:07.042Z,89.41
2017-02-27T09:28:19.767Z,89.32
2017-02-27T09:29:32.447Z,89.7
2017-02-27T09:30:45.119Z,88.84
2017-02-27T09:31:58.216Z,88.75
2017-02-27T09:33:11.308Z,88.65
2017-02-27T09:34:24.398Z,88.93
2017-02-27T09:35:37.100Z,89.22
2017-02-27T09:36:50.194Z,88.79
2017-02-27T09:38:03.323Z,88.7
2017-02-27T09:39:15.978Z,88.98
2017-02-27T09:40:29.056Z,88.6
2017-02-27T09:41:42.147Z,89.17
2017-02-27T09:42:55.199Z,88.6
2017-02-27T09:44:07.897Z,88.03
2017-02-27T09:45:20.982Z,88.03
2017-02-27T09:46:34.085Z,88.22
2017-02-27T09:47:47.177Z,88.22
2017-02-27T09:49:00.300Z,87.74
2017-02-27T09:50:13.373Z,87.74
2017-02-27T09:51:26.461Z,87.46
2017-02-27T09:52:39.160Z,87.74
2017-02-27T09:53:52.261Z,87.36
2017-02-27T09:55:05.349Z,87.12
2017-02-27T09:56:18.395Z,87.27
2017-02-27T09:57:31.474Z,87.12
2017-02-27T09:58:44.538Z,86.74
2017-02-27T09:59:57.615Z,86.74
2017-02-27T10:01:10.314Z,86.93
2017-02-27T10:02:23.425Z,86.83
2017-02-27T10:03:36.144Z,86.74
2017-02-27T10:04:48.430Z,86.45
2017-02-27T10:06:01.512Z,86.45
2017-02-27T10:07:14.176Z,86.07
2017-02-27T10:08:27.242Z,87.02
2017-02-27T10:09:40.303Z,86.74
2017-02-27T10:10:53.408Z,86.45
2017-02-27T10:12:06.143Z,86.93
2017-02-27T10:13:18.878Z,86.83
2017-02-27T10:14:31.583Z,86.55
2017-02-27T10:15:44.670Z,85.54
2017-02-27T10:16:57.758Z,85.73
2017-02-27T10:18:10.878Z,84.88
2017-02-27T10:19:24.246Z,85.35
2017-02-27T10:20:37.320Z,84.78
2017-02-27T10:21:50.394Z,84.97
2017-02-27T10:23:03.437Z,85.25
2017-02-27T10:24:16.114Z,84.97
2017-02-27T10:25:28.828Z,84.78
2017-02-27T10:26:41.908Z,84.49
2017-02-27T10:27:54.971Z,83.92
2017-02-27T10:29:08.071Z,84.01
2017-02-27T10:30:20.408Z,83.83
2017-02-27T10:31:33.558Z,82.82
2017-02-27T10:32:46.232Z,81.48
2017-02-27T10:33:59.309Z,82.53
2017-02-27T10:35:12.002Z,82.91
2017-02-27T10:36:24.669Z,81.96
2017-02-27T10:37:36.987Z,80.91
2017-02-27T10:38:49.684Z,81.58
2017-02-27T10:40:02.754Z,81.67
2017-02-27T10:41:15.820Z,81.2
2017-02-27T10:42:28.921Z,80.91
2017-02-27T10:43:41.992Z,80.15
2017-02-27T10:44:55.059Z,80.15
2017-02-27T10:46:07.389Z,80.53
2017-02-27T10:47:20.479Z,79.77
2017-02-27T10:48:33.525Z,80.15
2017-02-27T10:49:46.600Z,80.05
2017-02-27T10:50:59.695Z,80.33
2017-02-27T10:52:12.392Z,80.47
2017-02-27T10:53:25.462Z,79.71
2017-02-27T10:54:38.533Z,80.19
2017-02-27T10:55:51.600Z,79.9
2017-02-27T10:57:04.717Z,79.71
2017-02-27T10:58:17.796Z,79.04
2017-02-27T10:59:30.934Z,79.61
2017-02-27T11:00:43.642Z,79.43
2017-02-27T11:01:56.740Z,79.08
2017-02-27T11:03:09.408Z,78.41
2017-02-27T11:04:22.516Z,77.94
2017-02-27T11:05:35.193Z,78.51
2017-02-27T11:06:48.266Z,77.94
2017-02-27T11:08:00.983Z,77.94
2017-02-27T11:09:13.655Z,77.08
2017-02-27T11:10:26.381Z,76.31
2017-02-27T11:11:39.472Z,76.69
2017-02-27T11:12:52.543Z,75.96
2017-02-27T11:14:05.640Z,76.54
2017-02-27T11:15:18.337Z,75.59
2017-02-27T11:16:31.473Z,74.91
2017-02-27T11:17:44.556Z,74.73
2017-02-27T11:18:57.666Z,74.73
2017-02-27T11:20:10.748Z,75.01
2017-02-27T11:21:23.844Z,74.15
2017-02-27T11:22:36.915Z,74.05
2017-02-27T11:23:49.639Z,73.67
2017-02-27T11:25:02.769Z,74.34
2017-02-27T11:26:15.474Z,73.96
2017-02-27T11:27:28.624Z,73.86
2017-02-27T11:28:41.689Z,74.05
2017-02-27T11:29:54.816Z,74.05
2017-02-27T11:31:07.856Z,73.77
2017-02-27T11:32:20.934Z,73.29
2017-02-27T11:33:34.044Z,73.48
2017-02-27T11:34:47.114Z,73.77
2017-02-27T11:36:00.218Z,74.24
2017-02-27T11:37:13.328Z,74.15
2017-02-27T11:38:26.038Z,74.73
2017-02-27T11:39:39.119Z,74.73
2017-02-27T11:40:52.173Z,75.2
2017-02-27T11:42:04.922Z,73.86
2017-02-27T11:43:17.999Z,74.44
2017-02-27T11:44:31.102Z,73.67
2017-02-27T11:45:44.184Z,73.19
2017-02-27T11:46:57.261Z,73.96
2017-02-27T11:48:10.343Z,73.19
2017-02-27T11:49:23.023Z,73.48
2017-02-27T11:50:35.694Z,74.24
2017-02-27T11:51:48.789Z,73.86
2017-02-27T11:53:01.859Z,74.15
2017-02-27T11:54:14.940Z,74.05
2017-02-27T11:55:27.267Z,74.24
2017-02-27T11:56:39.620Z,73.39
2017-02-27T11:57:52.699Z,73.67
2017-02-27T11:59:05.754Z,72.81
2017-02-27T12:00:18.802Z,73.52
2017-02-27T12:01:31.873Z,73.39
2017-02-27T12:02:44.973Z,74.66
2017-02-27T12:03:58.090Z,73.61
2017-02-27T12:05:11.150Z,73.23
2017-02-27T12:06:24.212Z,74.82
2017-02-27T12:07:36.933Z,74.38
2017-02-27T12:08:50.020Z,73.23
2017-02-27T12:10:03.093Z,73.23
2017-02-27T12:11:15.825Z,72.56
2017-02-27T12:12:28.934Z,72.56
2017-02-27T12:13:42.008Z,73.14
2017-02-27T12:14:55.062Z,72.72
2017-02-27T12:16:08.150Z,72.66
2017-02-27T12:17:21.204Z,73
2017-02-27T12:18:34.273Z,73.29
2017-02-27T12:19:47.644Z,72.91
2017-02-27T12:21:00.340Z,72.43
2017-02-27T12:22:13.430Z,73
2017-02-27T12:23:26.546Z,73.29
2017-02-27T12:24:39.242Z,72.81
2017-02-27T12:25:51.925Z,72.91
2017-02-27T12:27:05.009Z,73.1
2017-02-27T12:28:18.092Z,73.44
2017-02-27T12:29:31.186Z,73.44
2017-02-27T12:30:44.275Z,73.25
2017-02-27T12:31:57.343Z,73.44
2017-02-27T12:33:09.674Z,73.44
2017-02-27T12:34:22.337Z,73.73
2017-02-27T12:35:35.437Z,73.16
2017-02-27T12:36:48.141Z,74.3
2017-02-27T12:38:01.225Z,73.73
2017-02-27T12:39:13.949Z,74.78
2017-02-27T12:40:26.988Z,75.07
2017-02-27T12:41:39.667Z,74.78
2017-02-27T12:42:52.754Z,75.16
2017-02-27T12:44:05.825Z,75.07
2017-02-27T12:45:18.508Z,74.59
2017-02-27T12:46:30.817Z,74.78
2017-02-27T12:47:43.505Z,74.88
2017-02-27T12:48:56.608Z,75.35
2017-02-27T12:50:08.912Z,74.98
2017-02-27T12:51:21.984Z,75.54
2017-02-27T12:52:34.679Z,75.74
2017-02-27T12:53:47.379Z,75.64
2017-02-27T12:55:00.425Z,76.03
2017-02-27T12:56:13.496Z,76.03
2017-02-27T12:57:26.559Z,76.03
2017-02-27T12:58:39.309Z,75.35
2017-02-27T12:59:51.607Z,74.59
2017-02-27T13:01:04.680Z,74.21
2017-02-27T13:02:17.748Z,74.4
2017-02-27T13:03:30.844Z,73.16
2017-02-27T13:04:43.192Z,73.35
2017-02-27T13:05:56.275Z,73.44
2017-02-27T13:07:08.976Z,73.63
2017-02-27T13:08:22.079Z,74.11
2017-02-27T13:09:34.822Z,74.69
2017-02-27T13:10:47.871Z,74.21
2017-02-27T13:12:00.963Z,73.63
2017-02-27T13:13:13.677Z,74.21
2017-02-27T13:14:26.772Z,74.88
2017-02-27T13:15:39.847Z,75.16
2017-02-27T13:16:52.926Z,75.45
2017-02-27T13:18:05.968Z,74.11
2017-02-27T13:19:18.642Z,72.87
2017-02-27T13:20:31.705Z,73.44
2017-02-27T13:21:44.851Z,73.07
2017-02-27T13:22:57.944Z,72.58
2017-02-27T13:24:11.006Z,74.02
2017-02-27T13:25:24.068Z,73.63
2017-02-27T13:26:37.138Z,74.21
2017-02-27T13:27:49.837Z,73.83
2017-02-27T13:29:02.915Z,73.73
2017-02-27T13:30:16.033Z,74.3
2017-02-27T13:31:29.167Z,74.11
2017-02-27T13:32:41.822Z,74.02
2017-02-27T13:33:54.889Z,74.59
2017-02-27T13:35:07.964Z,74.3
2017-02-27T13:36:21.052Z,74.88
2017-02-27T13:37:34.127Z,74.3
2017-02-27T13:38:47.203Z,74.49
2017-02-27T13:40:00.268Z,74.46
2017-02-27T13:41:12.541Z,74.65
2017-02-27T13:42:25.660Z,75.51
2017-02-27T13:43:38.734Z,75.79
2017-02-27T13:44:51.419Z,76.18
2017-02-27T13:46:03.747Z,76.08
2017-02-27T13:47:16.443Z,75.32
2017-02-27T13:48:28.768Z,75.6
2017-02-27T13:49:40.686Z,75.6
2017-02-27T13:50:53.762Z,75.51
2017-02-27T13:52:06.848Z,75.51
2017-02-27T13:53:19.944Z,75.26
2017-02-27T13:54:33.011Z,75.32
2017-02-27T13:55:46.118Z,75.42
2017-02-27T13:56:59.186Z,74.46
2017-02-27T13:58:11.862Z,75.03
2017-02-27T13:59:24.928Z,75.13
2017-02-27T14:00:37.991Z,74.65
2017-02-27T14:01:51.048Z,75.13
2017-02-27T14:03:04.119Z,75.6
2017-02-27T14:04:17.194Z,75.7
2017-02-27T14:05:30.302Z,75.89
2017-02-27T14:06:43.378Z,75.89
2017-02-27T14:07:56.079Z,75.89
2017-02-27T14:09:09.170Z,76.46
2017-02-27T14:10:22.260Z,76.84
2017-02-27T14:11:34.943Z,77.32
2017-02-27T14:12:47.249Z,77.13
2017-02-27T14:13:59.932Z,77.42
2017-02-27T14:15:13.001Z,77.09
2017-02-27T14:16:26.070Z,77.28
2017-02-27T14:17:39.134Z,77.67
2017-02-27T14:18:52.233Z,77.76
2017-02-27T14:20:05.312Z,77.38
2017-02-27T14:21:18.420Z,77.86
2017-02-27T14:22:31.524Z,77.76
2017-02-27T14:23:44.573Z,77.86
2017-02-27T14:24:57.667Z,77.86
2017-02-27T14:26:10.407Z,78.33
2017-02-27T14:27:23.486Z,78.43
2017-02-27T14:28:36.570Z,78.33
2017-02-27T14:29:49.669Z,78.33
2017-02-27T14:31:02.370Z,79.1
2017-02-27T14:32:15.466Z,79.1
2017-02-27T14:33:28.531Z,78.81
2017-02-27T14:34:40.812Z,78.62
2017-02-27T14:35:53.899Z,79.1
2017-02-27T14:37:06.978Z,79.35
2017-02-27T14:38:20.062Z,78.86
2017-02-27T14:39:32.766Z,79.77
2017-02-27T14:40:45.865Z,79.91
2017-02-27T14:41:58.911Z,79.77
2017-02-27T14:43:12.032Z,80.53
2017-02-27T14:44:24.726Z,80.3
2017-02-27T14:45:37.395Z,80.3
2017-02-27T14:46:50.464Z,80.3
2017-02-27T14:48:03.146Z,79.91
2017-02-27T14:49:16.239Z,80.58
2017-02-27T14:50:29.358Z,80.96
2017-02-27T14:51:42.449Z,80.87
2017-02-27T14:52:55.523Z,80.58
2017-02-27T14:54:08.609Z,80.77
2017-02-27T14:55:21.712Z,80.96
2017-02-27T14:56:34.785Z,81.15
2017-02-27T14:57:47.353Z,81.25
2017-02-27T14:59:00.468Z,81.44
2017-02-27T15:00:13.538Z,81.92
2017-02-27T15:01:26.647Z,81.92
2017-02-27T15:02:39.390Z,81.82
2017-02-27T15:03:52.482Z,82.11
2017-02-27T15:05:05.204Z,81.82
2017-02-27T15:06:18.296Z,81.92
2017-02-27T15:07:31.374Z,81.73
2017-02-27T15:08:44.470Z,81.54
2017-02-27T15:09:57.580Z,81.35
2017-02-27T15:11:09.858Z,80.87
2017-02-27T15:12:22.983Z,81.44
2017-02-27T15:13:36.049Z,81.44
2017-02-27T15:14:49.149Z,80.96
2017-02-27T15:16:01.477Z,81.35
2017-02-27T15:17:14.542Z,81.15
2017-02-27T15:18:27.255Z,81.63
2017-02-27T15:19:40.325Z,81.63
2017-02-27T15:20:53.375Z,81.44
2017-02-27T15:22:06.451Z,82.11
2017-02-27T15:23:19.547Z,81.92
2017-02-27T15:24:32.638Z,82.49
2017-02-27T15:25:45.735Z,82.49
2017-02-27T15:26:58.809Z,82.3
2017-02-27T15:28:11.868Z,82.4
2017-02-27T15:29:24.942Z,82.49
2017-02-27T15:30:37.650Z,82.59
2017-02-27T15:31:50.769Z,83.16
2017-02-27T15:33:03.809Z,82.68
2017-02-27T15:34:16.872Z,82.59
2017-02-27T15:35:29.925Z,82.78
2017-02-27T15:36:42.643Z,82.97
2017-02-27T15:37:55.363Z,83.25
2017-02-27T15:39:08.087Z,83.83
2017-02-27T15:40:20.762Z,83.64
2017-02-27T15:41:33.822Z,83.92
2017-02-27T15:42:46.886Z,83.73
2017-02-27T15:43:59.955Z,83.44
2017-02-27T15:45:12.636Z,83.64
2017-02-27T15:46:25.731Z,82.87
2017-02-27T15:47:38.784Z,82.78
2017-02-27T15:48:51.474Z,83.06
2017-02-27T15:50:04.559Z,82.3
2017-02-27T15:51:17.640Z,82.3
2017-02-27T15:52:30.726Z,82.59
2017-02-27T15:53:43.792Z,82.49
2017-02-27T15:54:56.852Z,82.3
2017-02-27T15:56:09.161Z,82.11
2017-02-27T15:57:22.254Z,81.54
2017-02-27T15:58:34.941Z,81.92